aviador You're here:

SVVA Decoded Metar

VALENCIA in VENEZUELA
Report Time2018-04-24 13:00:00
UTC Time2018-04-24 13:58:49
Flight Rules vfr VFR
Wind050° at 05 kt
W.Decomp.*RWY 10: 3.9 kt HW 3.1 kt LCW
W.Rank050° ranks 11
Current wind is above 050° avg. (3.5)
Visibility9999 m
Phenomena:N/A
Clouds:Scattered 016 Hf
Broken 100 Hf
Expected CloudBase > 2,000 ft AGL from Temp-Dew spread
Ceiling10,000 ft
Temp27°C (ISA +15)
Dew Point22°C (74% RH)
Heat Index29.2°C
QNH1017 hPa
Density Alt3,340 ft
Elevation1,414 ft
Report Wrong Elevation
Raw Report
METAR SVVA 241300Z 05005KT 9999 SCT016 BKN100 27/22 Q1017=

Extra information for SVVA:More info

Metar Taf Metar & Taf Last 4 Metars F.Rules Stats Wind Profile Meteogram Temp Stats Airport Information Weather charts Add Link Nearby VenuesMetar ALERT Operation Metar Decoded Social comments